GBYD/BJL METAR and TAF weather

Enter ICAO airport designator
Station Type Date Time Source
GBYD METAR 2021/07/29 19:00 UTC NOAA

GBYD 291900Z 27010KT 9999 TS BKN012 FEW020CB 29/24 Q1011 CB SE-S


Station Type Date Time Source
GBYD Decoded METAR 2021/07/29 19:00 UTC NOAA

Banjul / Yundum, Gambia, The (GBYD) 13-21N 016-48W 36M
Jul 29, 2021 - 03:00 PM EDT / 2021.07.29 1900 UTC
Wind: from the W (270 degrees) at 12 MPH (10 KT):0
Visibility: greater than 7 mile(s):0
Sky conditions: mostly cloudy
Weather: thunder; Cumulonimbus clouds observed
Temperature: 84 F (29 C)
Dew Point: 75 F (24 C)
Relative Humidity: 74%
Pressure (altimeter): 29.85 in. Hg (1011 hPa)
ob: GBYD 291900Z 27010KT 9999 TS BKN012 FEW020CB 29/24 Q1011 CB SE-S
cycle: 19

Station Type Date Time Source
GBYD TAF 2021/07/29 18:24 UTC NOAA

TAF TAF GBYD 291720Z 2918/3024 30008KT 9999 SCT013 PROB30
TEMPO 2920/2924 4000 TSRA BKN012 FEW030CB

Example: see airport list